Time;durP1;ratioP1;P1;durP2;ratioP2;P2;SDS_P1;SDS_P2;PMS_P1;PMS_P2;Temp;Humidity;BMP_temperature;BMP_pressure;BME280_temperature;BME280_humidity;BME280_pressure;Samples;Min_cycle;Max_cycle;Signal;HPM_P1;HPM_P2
2020/12/19 00:01:06;;;;;;;90.4;62.1;;;;;;;-2.44;89.31836;99854.32;;;;
2020/12/19 00:11:04;;;;;;;91.8;57;;;;;;;-2.34;89.95996;99856.61;;;;
2020/12/19 00:21:01;;;;;;;83.3;58.5;;;;;;;-2.25;89.94629;99850.16;;;;
2020/12/19 00:30:59;;;;;;;79.9;55.2;;;;;;;-2.11;89.90039;99862.43;;;;
2020/12/19 00:40:56;;;;;;;76.8;56.9;;;;;;;-2.03;89.85156;99878.13;;;;
2020/12/19 00:50:54;;;;;;;78.2;54.7;;;;;;;-1.97;90.33203;99869.42;;;;
2020/12/19 01:00:51;;;;;;;97.3;67.4;;;;;;;-1.82;89.65723;99880.69;;;;
2020/12/19 01:10:51;;;;;;;87.1;63;;;;;;;-1.94;90.32715;99870.88;;;;
2020/12/19 01:20:46;;;;;;;63.4;47.4;;;;;;;-1.87;90.28809;99866.41;;;;
2020/12/19 01:30:44;;;;;;;91.2;65.5;;;;;;;-1.68;90.79883;99849.84;;;;
2020/12/19 01:40:41;;;;;;;90.2;60.5;;;;;;;-1.7;90.32422;99865.09;;;;
2020/12/19 01:50:39;;;;;;;92.3;66.5;;;;;;;-1.61;90.07129;99846.22;;;;
2020/12/19 02:00:37;;;;;;;59.3;51.3;;;;;;;-1.73;90.02344;99836.4;;;;
2020/12/19 02:10:34;;;;;;;70;49.2;;;;;;;-1.89;89.78223;99828.83;;;;
2020/12/19 02:20:32;;;;;;;75.1;49.6;;;;;;;-1.88;90.0459;99809.33;;;;
2020/12/19 02:30:29;;;;;;;65;47.9;;;;;;;-1.81;89.75488;99795.14;;;;
2020/12/19 02:40:27;;;;;;;60.9;44.4;;;;;;;-1.97;89.49219;99784.89;;;;
2020/12/19 02:50:24;;;;;;;47.9;39;;;;;;;-1.93;88.95605;99791.41;;;;
2020/12/19 03:00:22;;;;;;;62;44.5;;;;;;;-1.92;89.23047;99777.2;;;;
2020/12/19 03:20:17;;;;;;;49.6;37.9;;;;;;;-1.89;88.77734;99760.13;;;;
2020/12/19 03:30:17;;;;;;;59.9;39.8;;;;;;;-1.89;88.88672;99774.16;;;;
2020/12/19 03:40:12;;;;;;;54.4;36.8;;;;;;;-1.95;89.68359;99759.11;;;;
2020/12/19 03:50:10;;;;;;;51.2;37.8;;;;;;;-2;89.46484;99739.57;;;;
2020/12/19 04:00:08;;;;;;;47;32.7;;;;;;;-1.97;89.21973;99724.14;;;;
2020/12/19 04:10:05;;;;;;;63.4;44.7;;;;;;;-2;88.43848;99703.41;;;;
2020/12/19 04:20:05;;;;;;;50.4;32.7;;;;;;;-2.1;88.25488;99692.41;;;;
2020/12/19 04:30:00;;;;;;;48.9;32.4;;;;;;;-2.16;88.3291;99693.22;;;;
2020/12/19 04:39:58;;;;;;;48.8;36.8;;;;;;;-2.28;89.15332;99702.7;;;;
2020/12/19 04:49:55;;;;;;;47.1;33.3;;;;;;;-2.22;88.51367;99710.64;;;;
2020/12/19 04:59:53;;;;;;;46.7;33.5;;;;;;;-2.33;88.64258;99692.75;;;;
2020/12/19 05:09:52;;;;;;;52.6;39;;;;;;;-2.58;89.15918;99703;;;;
2020/12/19 05:19:48;;;;;;;48.9;32.3;;;;;;;-2.62;90.25977;99706.21;;;;
2020/12/19 05:39:43;;;;;;;39.1;28.5;;;;;;;-2.48;90.35547;99709.73;;;;
2020/12/19 05:49:40;;;;;;;55.3;34;;;;;;;-2.71;90.77637;99731.92;;;;
2020/12/19 05:59:38;;;;;;;51.4;39.4;;;;;;;-2.67;89.71777;99725.25;;;;
2020/12/19 06:09:36;;;;;;;41.1;31.3;;;;;;;-2.67;89.5957;99721.8;;;;
2020/12/19 06:19:33;;;;;;;44.1;29.9;;;;;;;-2.58;88.37402;99737.3;;;;
2020/12/19 06:29:30;;;;;;;46;28.7;;;;;;;-2.53;88.62109;99741.19;;;;
2020/12/19 06:39:28;;;;;;;42.3;28.8;;;;;;;-2.66;88.31445;99748;;;;
2020/12/19 06:49:25;;;;;;;39.7;30.3;;;;;;;-2.64;89.00293;99779.48;;;;
2020/12/19 06:59:23;;;;;;;32.9;25.7;;;;;;;-2.35;88.06055;99784.52;;;;
2020/12/19 07:09:20;;;;;;;29.7;21.9;;;;;;;-2.46;87.50195;99786.91;;;;
2020/12/19 07:19:18;;;;;;;36.9;24.8;;;;;;;-2.43;88.47852;99786.52;;;;
2020/12/19 07:29:15;;;;;;;27.5;24.4;;;;;;;-2.37;88.71191;99786.55;;;;
2020/12/19 07:39:13;;;;;;;34.8;29;;;;;;;-2.23;87.98633;99787.42;;;;
2020/12/19 07:49:10;;;;;;;45;32.8;;;;;;;-1.96;88.11816;99777.79;;;;
2020/12/19 07:59:08;;;;;;;36;26.4;;;;;;;-1.84;87.47852;99787.58;;;;
2020/12/19 08:09:06;;;;;;;30.1;26.1;;;;;;;-1.86;86.5332;99786.16;;;;
2020/12/19 08:19:03;;;;;;;39.4;28.5;;;;;;;-1.72;87.33789;99769.33;;;;
2020/12/19 08:29:07;;;;;;;37.1;23.7;;;;;;;-1.57;87.04102;99788.49;;;;
2020/12/19 08:38:58;;;;;;;41.2;29.2;;;;;;;-1.48;87.37891;99781.99;;;;
2020/12/19 08:49:01;;;;;;;40.1;32.3;;;;;;;-1.34;86.73926;99785.47;;;;
2020/12/19 08:58:55;;;;;;;41.4;31.4;;;;;;;-1.13;87.08887;99770.25;;;;
2020/12/19 09:08:52;;;;;;;37.4;31.6;;;;;;;-1.37;86.83203;99776.13;;;;
2020/12/19 09:18:49;;;;;;;41.3;30;;;;;;;-1.1;87.43164;99763.73;;;;
2020/12/19 09:28:47;;;;;;;44.3;30.4;;;;;;;-1.05;86;99754.18;;;;
2020/12/19 09:38:47;;;;;;;61.5;42.6;;;;;;;-1.1;85.70215;99734.63;;;;
2020/12/19 09:48:42;;;;;;;43.8;33;;;;;;;-0.99;84.97949;99733.2;;;;
2020/12/19 09:58:39;;;;;;;48.7;37;;;;;;;-0.88;84.36816;99730.76;;;;
2020/12/19 10:08:37;;;;;;;57.8;34.5;;;;;;;-0.78;84.44238;99720.56;;;;
2020/12/19 10:18:35;;;;;;;66.6;42.7;;;;;;;-1.1;84.48633;99726.69;;;;
2020/12/19 10:28:32;;;;;;;62.7;41.6;;;;;;;-0.95;84.95508;99713.26;;;;
2020/12/19 10:38:30;;;;;;;53.2;36.1;;;;;;;-0.73;85.36133;99698.78;;;;
2020/12/19 10:48:27;;;;;;;63;38.9;;;;;;;-0.53;83.07715;99702.18;;;;
2020/12/19 10:58:25;;;;;;;38.7;26.4;;;;;;;-0.8;83.75977;99712;;;;
2020/12/19 11:08:26;;;;;;;34.9;27.4;;;;;;;-0.71;84.68555;99704.67;;;;
2020/12/19 11:18:20;;;;;;;37.9;30.5;;;;;;;-0.75;85.09473;99696.33;;;;
2020/12/19 11:28:18;;;;;;;42.6;34.9;;;;;;;-0.87;86.1875;99686.59;;;;
2020/12/19 11:38:16;;;;;;;39.2;27.8;;;;;;;-0.62;85.56934;99692.82;;;;
2020/12/19 11:58:11;;;;;;;35.3;27;;;;;;;-0.08;84.60254;99684.48;;;;
2020/12/19 12:08:09;;;;;;;50.2;31.5;;;;;;;-0.09;84.07422;99677.55;;;;
2020/12/19 12:18:07;;;;;;;48.1;33.3;;;;;;;-0.38;86.05762;99681.53;;;;
2020/12/19 12:28:04;;;;;;;37.6;27.9;;;;;;;-0.25;86.66504;99678.86;;;;
2020/12/19 12:38:04;;;;;;;40.7;34.8;;;;;;;0;85.50781;99666.48;;;;
2020/12/19 12:48:00;;;;;;;48.3;35.3;;;;;;;-0.2;86.01563;99654.36;;;;
2020/12/19 12:57:58;;;;;;;40.4;28.1;;;;;;;-0.28;85.95508;99657.28;;;;
2020/12/19 13:07:55;;;;;;;33.5;27.5;;;;;;;-0.36;85.66699;99655.67;;;;
2020/12/19 13:17:53;;;;;;;42.8;32.8;;;;;;;-0.28;85.67188;99626.31;;;;
2020/12/19 13:27:53;;;;;;;58;38.7;;;;;;;-0.44;86.14453;99655.91;;;;
2020/12/19 13:37:48;;;;;;;40.7;31.5;;;;;;;-0.77;87.50098;99652.57;;;;
2020/12/19 13:47:46;;;;;;;32.8;25.7;;;;;;;-0.69;87.06836;99650.49;;;;
2020/12/19 14:47:32;;;;;;;31.9;23.7;;;;;;;-0.87;88.4668;99668.89;;;;
2020/12/19 14:57:30;;;;;;;32.4;23.2;;;;;;;-0.85;88.19434;99684.55;;;;
2020/12/19 15:07:27;;;;;;;33.2;23.3;;;;;;;-0.88;88.48438;99687.6;;;;
2020/12/19 15:17:25;;;;;;;28.8;25.8;;;;;;;-1.02;88.3584;99677.05;;;;
2020/12/19 15:27:24;;;;;;;24;21.1;;;;;;;-1.11;88.56934;99691.48;;;;
2020/12/19 15:37:20;;;;;;;26.7;22.1;;;;;;;-1.09;88.35645;99681.53;;;;
2020/12/19 15:47:18;;;;;;;33.2;22.1;;;;;;;-1.15;88.51855;99685.01;;;;
2020/12/19 15:57:15;;;;;;;30.5;22.2;;;;;;;-1.1;88.25488;99687.84;;;;
2020/12/19 16:07:13;;;;;;;37.5;25.4;;;;;;;-0.98;88.07227;99690.68;;;;
2020/12/19 16:17:11;;;;;;;38.1;27.5;;;;;;;-1.24;88.17188;99678.28;;;;
2020/12/19 16:27:08;;;;;;;67.5;53.7;;;;;;;-1.18;88.08496;99680.09;;;;
2020/12/19 16:37:06;;;;;;;32.7;25.1;;;;;;;-1.27;88.78809;99681.34;;;;
2020/12/19 16:47:04;;;;;;;40.3;27.6;;;;;;;-1.15;88.36328;99673.61;;;;
2020/12/19 16:57:01;;;;;;;32.9;26;;;;;;;-1.22;88.33984;99670.98;;;;
2020/12/19 17:06:59;;;;;;;36.8;27.2;;;;;;;-1.19;88.1377;99686.43;;;;
2020/12/19 17:16:57;;;;;;;35.8;24.8;;;;;;;-1.2;88.01563;99679.51;;;;
2020/12/19 17:26:55;;;;;;;33.1;28.7;;;;;;;-1.24;88.53125;99680.11;;;;
2020/12/19 17:36:52;;;;;;;37.4;30.6;;;;;;;-1.36;88.95508;99693.15;;;;
2020/12/19 17:46:50;;;;;;;35.8;27.2;;;;;;;-1.42;88.57031;99691.3;;;;
2020/12/19 17:56:48;;;;;;;30.7;25.9;;;;;;;-1.58;88.81055;99687.23;;;;
2020/12/19 18:06:45;;;;;;;32.4;25.1;;;;;;;-1.45;87.98535;99678.48;;;;
2020/12/19 18:16:43;;;;;;;34.1;26.4;;;;;;;-1.44;88.21484;99674.02;;;;
2020/12/19 18:26:41;;;;;;;31.4;22.4;;;;;;;-1.42;87.67383;99686.01;;;;
2020/12/19 18:36:39;;;;;;;32.3;25.5;;;;;;;-1.44;87.37305;99689.88;;;;
2020/12/19 18:46:36;;;;;;;33.6;27.7;;;;;;;-1.7;87.95605;99694.12;;;;
2020/12/19 18:56:34;;;;;;;30.9;23.8;;;;;;;-1.73;87.6748;99694.52;;;;
2020/12/19 19:06:32;;;;;;;39.1;27.7;;;;;;;-1.63;87.42188;99699.41;;;;
2020/12/19 19:16:33;;;;;;;38.7;29.5;;;;;;;-1.78;87.45801;99691.69;;;;
2020/12/19 19:26:27;;;;;;;46.2;34.3;;;;;;;-1.8;87.32324;99698.98;;;;
2020/12/19 19:36:25;;;;;;;39.2;33.3;;;;;;;-1.93;87.06445;99700.78;;;;
2020/12/19 19:46:25;;;;;;;50.8;30.7;;;;;;;-2.06;87.54297;99715.59;;;;
2020/12/19 19:56:20;;;;;;;49.2;33.6;;;;;;;-2.31;88.03516;99717.12;;;;
2020/12/19 20:06:17;;;;;;;35.3;28.4;;;;;;;-2.36;87.62305;99703.68;;;;
2020/12/19 20:16:15;;;;;;;38.2;28.1;;;;;;;-2.32;88.46094;99712.84;;;;
2020/12/19 20:26:13;;;;;;;46.5;33.7;;;;;;;-2.27;88.4707;99707.8;;;;
2020/12/19 20:36:10;;;;;;;45.6;31.7;;;;;;;-2.2;88.46094;99721.02;;;;
2020/12/19 20:46:08;;;;;;;42.8;30.5;;;;;;;-2.21;88.36328;99724.66;;;;
2020/12/19 20:56:06;;;;;;;45.5;28.9;;;;;;;-2.18;87.94336;99721.63;;;;
2020/12/19 21:06:03;;;;;;;38;31.4;;;;;;;-2.24;87.48438;99725.88;;;;
2020/12/19 21:16:01;;;;;;;50.1;36.1;;;;;;;-2.28;88.27051;99731.74;;;;
2020/12/19 21:25:59;;;;;;;57.4;33.9;;;;;;;-2.17;88.30566;99733.83;;;;
2020/12/19 21:35:56;;;;;;;46.1;30.7;;;;;;;-2.21;88.12305;99746.61;;;;
2020/12/19 21:45:53;;;;;;;53.8;39.6;;;;;;;-2.3;88.24512;99741.7;;;;
2020/12/19 21:55:51;;;;;;;45.7;35.2;;;;;;;-2.25;87.90625;99742.73;;;;
2020/12/19 22:05:49;;;;;;;45.2;37.1;;;;;;;-2.2;88.17969;99745.61;;;;
2020/12/19 22:15:46;;;;;;;56.6;35.3;;;;;;;-2.23;88.04102;99761.84;;;;
2020/12/19 22:25:44;;;;;;;48.9;35.1;;;;;;;-2.18;87.86719;99766.52;;;;
2020/12/19 22:35:41;;;;;;;55.6;40;;;;;;;-2.25;87.78613;99763.84;;;;
2020/12/19 22:45:39;;;;;;;57.4;40.2;;;;;;;-2.31;88.04688;99756.72;;;;
2020/12/19 22:55:36;;;;;;;50.9;36.8;;;;;;;-2.46;88.85645;99763.94;;;;
2020/12/19 23:05:34;;;;;;;48.7;36;;;;;;;-2.45;88.92188;99775.31;;;;
2020/12/19 23:15:31;;;;;;;52.8;33.8;;;;;;;-2.43;88.78418;99775.95;;;;
2020/12/19 23:25:29;;;;;;;49.9;35.8;;;;;;;-2.5;87.85449;99777.73;;;;
2020/12/19 23:35:26;;;;;;;47.4;32.1;;;;;;;-2.58;88.0127;99776.06;;;;
2020/12/19 23:45:25;;;;;;;59.4;34.6;;;;;;;-2.82;88.04102;99772.05;;;;
2020/12/19 23:55:21;;;;;;;47.8;34.2;;;;;;;-2.86;87.9209;99780.53;;;;
